METAR Data
IDs: Format: Raw Decoded Include TAF

Data at: 0200 UTC 01 Mar 2021

LZZI 010130Z 10003KT 060V130 9999 OVC025 01/M01 Q1031